sensor_id;sensor_type;location;lat;lon;timestamp;temperature;humidity
19516;DHT22;9901;47.448;7.692;2023-05-07T00:01:09;14.50;99.90
19516;DHT22;9901;47.448;7.692;2023-05-07T00:03:36;14.40;99.90
19516;DHT22;9901;47.448;7.692;2023-05-07T00:06:03;14.30;99.90
19516;DHT22;9901;47.448;7.692;2023-05-07T00:08:29;14.30;99.90
19516;DHT22;9901;47.448;7.692;2023-05-07T00:10:54;14.20;99.90
19516;DHT22;9901;47.448;7.692;2023-05-07T00:13:20;14.20;99.90
19516;DHT22;9901;47.448;7.692;2023-05-07T00:15:45;14.20;99.90
19516;DHT22;9901;47.448;7.692;2023-05-07T00:18:11;14.10;99.90
19516;DHT22;9901;47.448;7.692;2023-05-07T00:20:37;14.10;99.90
19516;DHT22;9901;47.448;7.692;2023-05-07T00:23:09;14.10;99.90
19516;DHT22;9901;47.448;7.692;2023-05-07T00:25:35;14.10;99.90
19516;DHT22;9901;47.448;7.692;2023-05-07T00:28:06;14.10;99.90
19516;DHT22;9901;47.448;7.692;2023-05-07T00:30:32;14.10;99.90
19516;DHT22;9901;47.448;7.692;2023-05-07T00:33:12;14.10;99.90
19516;DHT22;9901;47.448;7.692;2023-05-07T00:35:37;14.10;99.90
19516;DHT22;9901;47.448;7.692;2023-05-07T00:38:03;14.10;99.90
19516;DHT22;9901;47.448;7.692;2023-05-07T00:40:28;14.00;99.90
19516;DHT22;9901;47.448;7.692;2023-05-07T00:42:54;14.10;99.90
19516;DHT22;9901;47.448;7.692;2023-05-07T00:45:26;14.00;99.90
19516;DHT22;9901;47.448;7.692;2023-05-07T00:47:55;13.90;99.90
19516;DHT22;9901;47.448;7.692;2023-05-07T00:50:21;13.90;99.90
19516;DHT22;9901;47.448;7.692;2023-05-07T00:52:47;13.80;99.90
19516;DHT22;9901;47.448;7.692;2023-05-07T00:55:13;13.80;99.90
19516;DHT22;9901;47.448;7.692;2023-05-07T00:57:41;14.00;99.90
19516;DHT22;9901;47.448;7.692;2023-05-07T01:00:08;13.90;99.90
19516;DHT22;9901;47.448;7.692;2023-05-07T01:02:35;13.90;99.90
19516;DHT22;9901;47.448;7.692;2023-05-07T01:05:02;13.80;99.90
19516;DHT22;9901;47.448;7.692;2023-05-07T01:07:29;13.90;99.90
19516;DHT22;9901;47.448;7.692;2023-05-07T01:09:56;13.80;99.90
19516;DHT22;9901;47.448;7.692;2023-05-07T01:12:25;13.90;99.90
19516;DHT22;9901;47.448;7.692;2023-05-07T01:14:54;13.90;99.90
19516;DHT22;9901;47.448;7.692;2023-05-07T01:17:23;13.90;99.90
19516;DHT22;9901;47.448;7.692;2023-05-07T01:19:48;13.90;99.90
19516;DHT22;9901;47.448;7.692;2023-05-07T01:22:16;13.80;99.90
19516;DHT22;9901;47.448;7.692;2023-05-07T01:24:52;13.80;99.90
19516;DHT22;9901;47.448;7.692;2023-05-07T01:27:19;13.80;99.90
19516;DHT22;9901;47.448;7.692;2023-05-07T01:29:57;13.80;99.90
19516;DHT22;9901;47.448;7.692;2023-05-07T01:32:51;13.90;99.90
19516;DHT22;9901;47.448;7.692;2023-05-07T01:35:24;13.70;99.90
19516;DHT22;9901;47.448;7.692;2023-05-07T01:37:50;13.70;99.90
19516;DHT22;9901;47.448;7.692;2023-05-07T01:40:16;13.60;99.90
19516;DHT22;9901;47.448;7.692;2023-05-07T01:42:51;13.60;99.90
19516;DHT22;9901;47.448;7.692;2023-05-07T01:45:19;13.60;99.90
19516;DHT22;9901;47.448;7.692;2023-05-07T01:47:45;13.50;99.90
19516;DHT22;9901;47.448;7.692;2023-05-07T01:50:12;13.40;99.90
19516;DHT22;9901;47.448;7.692;2023-05-07T01:52:38;13.50;99.90
19516;DHT22;9901;47.448;7.692;2023-05-07T01:55:05;13.60;99.90
19516;DHT22;9901;47.448;7.692;2023-05-07T01:57:31;13.40;99.90
19516;DHT22;9901;47.448;7.692;2023-05-07T01:59:56;13.40;99.90
19516;DHT22;9901;47.448;7.692;2023-05-07T02:02:22;13.30;99.90
19516;DHT22;9901;47.448;7.692;2023-05-07T02:04:48;13.40;99.90
19516;DHT22;9901;47.448;7.692;2023-05-07T02:07:13;13.30;99.90
19516;DHT22;9901;47.448;7.692;2023-05-07T02:09:39;13.20;99.90
19516;DHT22;9901;47.448;7.692;2023-05-07T02:12:04;13.30;99.90
19516;DHT22;9901;47.448;7.692;2023-05-07T02:14:30;13.20;99.90
19516;DHT22;9901;47.448;7.692;2023-05-07T02:16:56;13.20;99.90
19516;DHT22;9901;47.448;7.692;2023-05-07T02:19:21;13.20;99.90
19516;DHT22;9901;47.448;7.692;2023-05-07T02:21:47;13.10;99.90
19516;DHT22;9901;47.448;7.692;2023-05-07T02:24:13;13.10;99.90
19516;DHT22;9901;47.448;7.692;2023-05-07T02:26:42;13.00;99.90
19516;DHT22;9901;47.448;7.692;2023-05-07T02:29:07;13.00;99.90
19516;DHT22;9901;47.448;7.692;2023-05-07T02:31:33;13.00;99.90
19516;DHT22;9901;47.448;7.692;2023-05-07T02:34:11;13.10;99.90
19516;DHT22;9901;47.448;7.692;2023-05-07T02:36:37;12.90;99.90
19516;DHT22;9901;47.448;7.692;2023-05-07T02:39:03;13.00;99.90
19516;DHT22;9901;47.448;7.692;2023-05-07T02:41:28;13.00;99.90
19516;DHT22;9901;47.448;7.692;2023-05-07T02:43:54;13.00;99.90
19516;DHT22;9901;47.448;7.692;2023-05-07T02:46:20;13.00;99.90
19516;DHT22;9901;47.448;7.692;2023-05-07T02:48:45;13.00;99.90
19516;DHT22;9901;47.448;7.692;2023-05-07T02:51:11;13.00;99.90
19516;DHT22;9901;47.448;7.692;2023-05-07T02:53:37;12.90;99.90
19516;DHT22;9901;47.448;7.692;2023-05-07T02:56:02;12.90;99.90
19516;DHT22;9901;47.448;7.692;2023-05-07T02:58:28;12.90;99.90
19516;DHT22;9901;47.448;7.692;2023-05-07T03:00:54;12.80;99.90
19516;DHT22;9901;47.448;7.692;2023-05-07T03:03:25;12.80;99.90
19516;DHT22;9901;47.448;7.692;2023-05-07T03:05:50;12.90;99.90
19516;DHT22;9901;47.448;7.692;2023-05-07T03:08:17;12.70;99.90
19516;DHT22;9901;47.448;7.692;2023-05-07T03:10:43;12.70;99.90
19516;DHT22;9901;47.448;7.692;2023-05-07T03:13:26;12.80;99.90
19516;DHT22;9901;47.448;7.692;2023-05-07T03:15:51;12.70;99.90
19516;DHT22;9901;47.448;7.692;2023-05-07T03:18:20;12.70;99.90
19516;DHT22;9901;47.448;7.692;2023-05-07T03:20:48;12.70;99.90
19516;DHT22;9901;47.448;7.692;2023-05-07T03:23:17;12.70;99.90
19516;DHT22;9901;47.448;7.692;2023-05-07T03:25:51;12.70;99.90
19516;DHT22;9901;47.448;7.692;2023-05-07T03:28:17;12.70;99.90
19516;DHT22;9901;47.448;7.692;2023-05-07T03:30:46;12.70;99.90
19516;DHT22;9901;47.448;7.692;2023-05-07T03:33:11;12.80;99.90
19516;DHT22;9901;47.448;7.692;2023-05-07T03:35:37;12.70;99.90
19516;DHT22;9901;47.448;7.692;2023-05-07T03:38:03;12.70;99.90
19516;DHT22;9901;47.448;7.692;2023-05-07T03:40:28;12.70;99.90
19516;DHT22;9901;47.448;7.692;2023-05-07T03:42:54;12.70;99.90
19516;DHT22;9901;47.448;7.692;2023-05-07T03:45:19;12.80;99.90
19516;DHT22;9901;47.448;7.692;2023-05-07T03:47:45;12.70;99.90
19516;DHT22;9901;47.448;7.692;2023-05-07T03:50:20;12.80;99.90
19516;DHT22;9901;47.448;7.692;2023-05-07T03:52:50;12.80;99.90
19516;DHT22;9901;47.448;7.692;2023-05-07T03:55:16;12.90;99.90
19516;DHT22;9901;47.448;7.692;2023-05-07T03:57:41;12.90;99.90
19516;DHT22;9901;47.448;7.692;2023-05-07T04:00:07;12.90;99.90
19516;DHT22;9901;47.448;7.692;2023-05-07T04:02:37;12.80;99.90
19516;DHT22;9901;47.448;7.692;2023-05-07T04:05:03;12.90;99.90
19516;DHT22;9901;47.448;7.692;2023-05-07T04:07:29;12.80;99.90
19516;DHT22;9901;47.448;7.692;2023-05-07T04:09:55;12.90;99.90
19516;DHT22;9901;47.448;7.692;2023-05-07T04:12:21;12.80;99.90
19516;DHT22;9901;47.448;7.692;2023-05-07T04:14:46;12.90;99.90
19516;DHT22;9901;47.448;7.692;2023-05-07T04:17:12;12.80;99.90
19516;DHT22;9901;47.448;7.692;2023-05-07T04:19:38;12.80;99.90
19516;DHT22;9901;47.448;7.692;2023-05-07T04:22:04;12.90;99.90
19516;DHT22;9901;47.448;7.692;2023-05-07T04:24:32;12.80;99.90
19516;DHT22;9901;47.448;7.692;2023-05-07T04:27:06;12.80;99.90
19516;DHT22;9901;47.448;7.692;2023-05-07T04:29:36;12.80;99.90
19516;DHT22;9901;47.448;7.692;2023-05-07T04:32:02;12.80;99.90
19516;DHT22;9901;47.448;7.692;2023-05-07T04:34:45;12.80;99.90
19516;DHT22;9901;47.448;7.692;2023-05-07T04:37:15;12.90;99.90
19516;DHT22;9901;47.448;7.692;2023-05-07T04:39:43;12.90;99.90
19516;DHT22;9901;47.448;7.692;2023-05-07T04:42:15;12.90;99.90
19516;DHT22;9901;47.448;7.692;2023-05-07T04:44:45;12.90;99.90
19516;DHT22;9901;47.448;7.692;2023-05-07T04:47:15;12.90;99.90
19516;DHT22;9901;47.448;7.692;2023-05-07T04:49:41;12.90;99.90
19516;DHT22;9901;47.448;7.692;2023-05-07T04:52:06;12.90;99.90
19516;DHT22;9901;47.448;7.692;2023-05-07T04:54:32;13.00;99.90
19516;DHT22;9901;47.448;7.692;2023-05-07T04:56:57;13.00;99.90
19516;DHT22;9901;47.448;7.692;2023-05-07T04:59:23;13.00;99.90
19516;DHT22;9901;47.448;7.692;2023-05-07T05:01:48;13.00;99.90
19516;DHT22;9901;47.448;7.692;2023-05-07T05:04:14;13.10;99.90
19516;DHT22;9901;47.448;7.692;2023-05-07T05:06:40;13.10;99.90
19516;DHT22;9901;47.448;7.692;2023-05-07T05:09:06;13.20;99.90
19516;DHT22;9901;47.448;7.692;2023-05-07T05:11:32;13.20;99.90
19516;DHT22;9901;47.448;7.692;2023-05-07T05:13:59;13.30;99.90
19516;DHT22;9901;47.448;7.692;2023-05-07T05:16:25;13.30;99.90
19516;DHT22;9901;47.448;7.692;2023-05-07T05:19:01;13.30;99.90
19516;DHT22;9901;47.448;7.692;2023-05-07T05:21:31;13.30;99.90
19516;DHT22;9901;47.448;7.692;2023-05-07T05:23:56;13.30;99.90
19516;DHT22;9901;47.448;7.692;2023-05-07T05:26:22;13.50;99.90
19516;DHT22;9901;47.448;7.692;2023-05-07T05:28:48;13.50;99.90
19516;DHT22;9901;47.448;7.692;2023-05-07T05:31:13;13.40;99.90
19516;DHT22;9901;47.448;7.692;2023-05-07T05:33:39;13.40;99.90
19516;DHT22;9901;47.448;7.692;2023-05-07T05:36:05;13.50;99.90
19516;DHT22;9901;47.448;7.692;2023-05-07T05:38:36;13.50;99.90
19516;DHT22;9901;47.448;7.692;2023-05-07T05:41:02;13.50;99.90
19516;DHT22;9901;47.448;7.692;2023-05-07T05:43:28;13.50;99.90
19516;DHT22;9901;47.448;7.692;2023-05-07T05:45:57;13.50;99.90
19516;DHT22;9901;47.448;7.692;2023-05-07T05:48:23;13.50;99.90
19516;DHT22;9901;47.448;7.692;2023-05-07T05:50:49;13.50;99.90
19516;DHT22;9901;47.448;7.692;2023-05-07T05:53:14;13.60;99.90
19516;DHT22;9901;47.448;7.692;2023-05-07T05:55:44;13.60;99.90
19516;DHT22;9901;47.448;7.692;2023-05-07T05:58:10;13.70;99.90
19516;DHT22;9901;47.448;7.692;2023-05-07T06:00:36;13.80;99.90
19516;DHT22;9901;47.448;7.692;2023-05-07T06:03:01;13.90;99.90
19516;DHT22;9901;47.448;7.692;2023-05-07T06:05:30;14.00;99.90
19516;DHT22;9901;47.448;7.692;2023-05-07T06:07:56;14.10;99.90
19516;DHT22;9901;47.448;7.692;2023-05-07T06:10:24;14.20;99.90
19516;DHT22;9901;47.448;7.692;2023-05-07T06:13:06;14.40;99.90
19516;DHT22;9901;47.448;7.692;2023-05-07T06:15:35;14.50;99.90
19516;DHT22;9901;47.448;7.692;2023-05-07T06:18:01;14.60;99.90
19516;DHT22;9901;47.448;7.692;2023-05-07T06:20:27;14.80;99.90
19516;DHT22;9901;47.448;7.692;2023-05-07T06:22:52;14.80;99.90
19516;DHT22;9901;47.448;7.692;2023-05-07T06:25:23;14.90;99.90
19516;DHT22;9901;47.448;7.692;2023-05-07T06:27:48;14.90;99.90
19516;DHT22;9901;47.448;7.692;2023-05-07T06:30:16;14.90;99.90
19516;DHT22;9901;47.448;7.692;2023-05-07T06:32:42;15.00;99.90
19516;DHT22;9901;47.448;7.692;2023-05-07T06:35:08;15.10;99.90
19516;DHT22;9901;47.448;7.692;2023-05-07T06:37:34;15.30;99.90
19516;DHT22;9901;47.448;7.692;2023-05-07T06:40:05;15.50;99.90
19516;DHT22;9901;47.448;7.692;2023-05-07T06:42:31;15.60;99.90
19516;DHT22;9901;47.448;7.692;2023-05-07T06:45:03;15.50;99.90
19516;DHT22;9901;47.448;7.692;2023-05-07T06:47:28;15.90;99.90
19516;DHT22;9901;47.448;7.692;2023-05-07T06:50:05;16.10;99.90
19516;DHT22;9901;47.448;7.692;2023-05-07T06:52:30;16.20;99.90
19516;DHT22;9901;47.448;7.692;2023-05-07T06:54:56;16.30;99.90
19516;DHT22;9901;47.448;7.692;2023-05-07T06:57:21;16.40;99.90
19516;DHT22;9901;47.448;7.692;2023-05-07T06:59:47;16.50;99.90
19516;DHT22;9901;47.448;7.692;2023-05-07T07:02:15;16.60;99.90
19516;DHT22;9901;47.448;7.692;2023-05-07T07:04:41;16.60;99.90
19516;DHT22;9901;47.448;7.692;2023-05-07T07:07:07;16.70;99.90
19516;DHT22;9901;47.448;7.692;2023-05-07T07:09:36;16.90;99.90
19516;DHT22;9901;47.448;7.692;2023-05-07T07:12:02;16.80;99.90
19516;DHT22;9901;47.448;7.692;2023-05-07T07:17:21;17.00;99.90
19516;DHT22;9901;47.448;7.692;2023-05-07T07:19:47;17.00;99.90
19516;DHT22;9901;47.448;7.692;2023-05-07T07:22:12;17.20;99.90
19516;DHT22;9901;47.448;7.692;2023-05-07T07:24:38;17.30;99.90
19516;DHT22;9901;47.448;7.692;2023-05-07T07:27:03;17.30;99.90
19516;DHT22;9901;47.448;7.692;2023-05-07T07:29:29;17.40;99.90
19516;DHT22;9901;47.448;7.692;2023-05-07T07:31:55;17.50;99.90
19516;DHT22;9901;47.448;7.692;2023-05-07T07:34:23;17.60;99.90
19516;DHT22;9901;47.448;7.692;2023-05-07T07:36:51;17.70;99.90
19516;DHT22;9901;47.448;7.692;2023-05-07T07:39:17;17.70;99.90
19516;DHT22;9901;47.448;7.692;2023-05-07T07:41:42;17.80;99.90
19516;DHT22;9901;47.448;7.692;2023-05-07T07:44:08;17.90;99.90
19516;DHT22;9901;47.448;7.692;2023-05-07T07:46:34;18.00;99.90
19516;DHT22;9901;47.448;7.692;2023-05-07T07:49:03;18.00;99.90
19516;DHT22;9901;47.448;7.692;2023-05-07T07:51:31;18.00;99.90
19516;DHT22;9901;47.448;7.692;2023-05-07T07:54:21;18.20;99.90
19516;DHT22;9901;47.448;7.692;2023-05-07T07:56:50;18.30;99.90
19516;DHT22;9901;47.448;7.692;2023-05-07T07:59:16;18.40;99.90
19516;DHT22;9901;47.448;7.692;2023-05-07T08:01:48;18.60;99.90
19516;DHT22;9901;47.448;7.692;2023-05-07T08:04:20;18.70;99.90
19516;DHT22;9901;47.448;7.692;2023-05-07T08:06:46;18.80;99.90
19516;DHT22;9901;47.448;7.692;2023-05-07T08:09:11;18.90;99.90
19516;DHT22;9901;47.448;7.692;2023-05-07T08:11:38;19.10;99.90
19516;DHT22;9901;47.448;7.692;2023-05-07T08:14:04;19.10;99.90
19516;DHT22;9901;47.448;7.692;2023-05-07T08:16:35;19.10;99.90
19516;DHT22;9901;47.448;7.692;2023-05-07T08:19:00;19.10;99.90
19516;DHT22;9901;47.448;7.692;2023-05-07T08:21:26;19.20;99.90
19516;DHT22;9901;47.448;7.692;2023-05-07T08:23:52;19.30;99.90
19516;DHT22;9901;47.448;7.692;2023-05-07T08:26:17;19.50;99.90
19516;DHT22;9901;47.448;7.692;2023-05-07T08:28:43;19.60;99.90
19516;DHT22;9901;47.448;7.692;2023-05-07T08:31:08;19.60;99.90
19516;DHT22;9901;47.448;7.692;2023-05-07T08:33:34;19.80;99.90
19516;DHT22;9901;47.448;7.692;2023-05-07T08:36:00;19.90;99.90
19516;DHT22;9901;47.448;7.692;2023-05-07T08:38:26;20.00;99.90
19516;DHT22;9901;47.448;7.692;2023-05-07T08:40:51;20.10;99.90
19516;DHT22;9901;47.448;7.692;2023-05-07T08:43:26;20.10;99.90
19516;DHT22;9901;47.448;7.692;2023-05-07T08:45:54;20.20;99.90
19516;DHT22;9901;47.448;7.692;2023-05-07T08:48:25;20.30;99.90
19516;DHT22;9901;47.448;7.692;2023-05-07T08:50:52;20.60;99.90
19516;DHT22;9901;47.448;7.692;2023-05-07T08:53:19;20.70;99.90
19516;DHT22;9901;47.448;7.692;2023-05-07T08:55:46;20.70;99.90
19516;DHT22;9901;47.448;7.692;2023-05-07T08:58:12;20.70;99.90
19516;DHT22;9901;47.448;7.692;2023-05-07T09:00:39;20.50;99.90
19516;DHT22;9901;47.448;7.692;2023-05-07T09:03:17;20.40;99.90
19516;DHT22;9901;47.448;7.692;2023-05-07T09:05:45;20.40;99.90
19516;DHT22;9901;47.448;7.692;2023-05-07T09:08:15;20.50;99.90
19516;DHT22;9901;47.448;7.692;2023-05-07T09:10:53;20.50;99.90
19516;DHT22;9901;47.448;7.692;2023-05-07T09:13:21;20.60;99.90
19516;DHT22;9901;47.448;7.692;2023-05-07T09:15:47;21.00;99.90
19516;DHT22;9901;47.448;7.692;2023-05-07T09:18:15;21.20;99.90
19516;DHT22;9901;47.448;7.692;2023-05-07T09:20:43;21.10;99.90
19516;DHT22;9901;47.448;7.692;2023-05-07T09:23:09;21.00;99.90
19516;DHT22;9901;47.448;7.692;2023-05-07T09:25:36;20.90;99.90
19516;DHT22;9901;47.448;7.692;2023-05-07T09:28:15;20.80;99.90
19516;DHT22;9901;47.448;7.692;2023-05-07T09:30:40;20.60;99.90
19516;DHT22;9901;47.448;7.692;2023-05-07T09:33:06;20.50;99.90
19516;DHT22;9901;47.448;7.692;2023-05-07T09:35:32;20.30;99.90
19516;DHT22;9901;47.448;7.692;2023-05-07T09:37:59;20.10;99.90
19516;DHT22;9901;47.448;7.692;2023-05-07T09:40:30;20.00;99.90
19516;DHT22;9901;47.448;7.692;2023-05-07T09:42:56;19.80;99.90
19516;DHT22;9901;47.448;7.692;2023-05-07T09:45:28;19.70;99.90
19516;DHT22;9901;47.448;7.692;2023-05-07T09:47:56;19.50;99.90
19516;DHT22;9901;47.448;7.692;2023-05-07T09:50:29;19.50;99.90
19516;DHT22;9901;47.448;7.692;2023-05-07T09:52:56;19.40;99.90
19516;DHT22;9901;47.448;7.692;2023-05-07T09:55:22;19.20;99.90
19516;DHT22;9901;47.448;7.692;2023-05-07T09:57:52;19.10;99.90
19516;DHT22;9901;47.448;7.692;2023-05-07T10:00:20;18.90;99.90
19516;DHT22;9901;47.448;7.692;2023-05-07T10:02:50;18.80;99.90
19516;DHT22;9901;47.448;7.692;2023-05-07T10:05:18;18.70;99.90
19516;DHT22;9901;47.448;7.692;2023-05-07T10:07:46;18.50;99.90
19516;DHT22;9901;47.448;7.692;2023-05-07T10:10:12;18.40;99.90
19516;DHT22;9901;47.448;7.692;2023-05-07T10:12:40;18.30;99.90
19516;DHT22;9901;47.448;7.692;2023-05-07T10:15:07;18.30;99.90
19516;DHT22;9901;47.448;7.692;2023-05-07T10:17:37;18.30;99.90
19516;DHT22;9901;47.448;7.692;2023-05-07T10:20:07;18.50;99.90
19516;DHT22;9901;47.448;7.692;2023-05-07T10:22:41;18.70;99.90
19516;DHT22;9901;47.448;7.692;2023-05-07T10:25:18;18.80;99.90
19516;DHT22;9901;47.448;7.692;2023-05-07T10:27:46;18.80;99.90
19516;DHT22;9901;47.448;7.692;2023-05-07T10:32:54;18.70;99.90
19516;DHT22;9901;47.448;7.692;2023-05-07T10:35:24;18.70;99.90
19516;DHT22;9901;47.448;7.692;2023-05-07T10:37:51;18.60;99.90
19516;DHT22;9901;47.448;7.692;2023-05-07T10:40:17;18.60;99.90
19516;DHT22;9901;47.448;7.692;2023-05-07T10:43:03;18.60;99.90
19516;DHT22;9901;47.448;7.692;2023-05-07T10:45:30;18.60;99.90
19516;DHT22;9901;47.448;7.692;2023-05-07T10:48:15;18.50;99.90
19516;DHT22;9901;47.448;7.692;2023-05-07T10:51:23;18.50;99.90
19516;DHT22;9901;47.448;7.692;2023-05-07T10:56:40;18.50;99.90
19516;DHT22;9901;47.448;7.692;2023-05-07T11:01:50;18.60;99.90
19516;DHT22;9901;47.448;7.692;2023-05-07T11:04:23;18.70;99.90
19516;DHT22;9901;47.448;7.692;2023-05-07T11:09:55;18.70;99.90
19516;DHT22;9901;47.448;7.692;2023-05-07T11:15:09;18.50;99.90
19516;DHT22;9901;47.448;7.692;2023-05-07T11:18:01;18.40;99.90
19516;DHT22;9901;47.448;7.692;2023-05-07T11:20:46;18.20;99.90
19516;DHT22;9901;47.448;7.692;2023-05-07T11:26:08;17.90;99.90
19516;DHT22;9901;47.448;7.692;2023-05-07T11:28:38;17.70;99.90
19516;DHT22;9901;47.448;7.692;2023-05-07T11:31:24;17.50;99.90
19516;DHT22;9901;47.448;7.692;2023-05-07T11:33:51;17.40;99.90
19516;DHT22;9901;47.448;7.692;2023-05-07T11:36:18;17.00;99.90
19516;DHT22;9901;47.448;7.692;2023-05-07T11:38:48;16.90;99.90
19516;DHT22;9901;47.448;7.692;2023-05-07T11:41:15;16.80;99.90
19516;DHT22;9901;47.448;7.692;2023-05-07T11:43:54;16.70;99.90
19516;DHT22;9901;47.448;7.692;2023-05-07T11:46:30;16.50;99.90
19516;DHT22;9901;47.448;7.692;2023-05-07T11:49:00;16.60;99.90
19516;DHT22;9901;47.448;7.692;2023-05-07T11:51:26;16.50;99.90
19516;DHT22;9901;47.448;7.692;2023-05-07T11:53:52;16.60;99.90
19516;DHT22;9901;47.448;7.692;2023-05-07T11:56:19;16.50;99.90
19516;DHT22;9901;47.448;7.692;2023-05-07T11:58:46;16.40;99.90
19516;DHT22;9901;47.448;7.692;2023-05-07T12:01:16;16.50;99.90
19516;DHT22;9901;47.448;7.692;2023-05-07T12:03:43;16.50;99.90
19516;DHT22;9901;47.448;7.692;2023-05-07T12:06:11;16.50;99.90
19516;DHT22;9901;47.448;7.692;2023-05-07T12:08:39;16.50;99.90
19516;DHT22;9901;47.448;7.692;2023-05-07T12:11:07;16.50;99.90
19516;DHT22;9901;47.448;7.692;2023-05-07T12:13:37;16.50;99.90
19516;DHT22;9901;47.448;7.692;2023-05-07T12:16:02;16.50;99.90
19516;DHT22;9901;47.448;7.692;2023-05-07T12:18:29;16.50;99.90
19516;DHT22;9901;47.448;7.692;2023-05-07T12:20:55;16.60;99.90
19516;DHT22;9901;47.448;7.692;2023-05-07T12:23:22;16.70;99.90
19516;DHT22;9901;47.448;7.692;2023-05-07T12:25:48;16.80;99.90
19516;DHT22;9901;47.448;7.692;2023-05-07T12:28:18;17.00;99.90
19516;DHT22;9901;47.448;7.692;2023-05-07T12:30:46;17.00;99.90
19516;DHT22;9901;47.448;7.692;2023-05-07T12:33:22;17.10;99.90
19516;DHT22;9901;47.448;7.692;2023-05-07T12:35:48;17.00;99.90
19516;DHT22;9901;47.448;7.692;2023-05-07T12:38:17;17.20;99.90
19516;DHT22;9901;47.448;7.692;2023-05-07T12:40:48;17.20;99.90
19516;DHT22;9901;47.448;7.692;2023-05-07T12:43:27;17.30;99.90
19516;DHT22;9901;47.448;7.692;2023-05-07T12:45:57;17.30;99.90
19516;DHT22;9901;47.448;7.692;2023-05-07T12:48:27;17.40;99.90
19516;DHT22;9901;47.448;7.692;2023-05-07T12:50:53;17.60;99.90
19516;DHT22;9901;47.448;7.692;2023-05-07T12:53:21;17.80;99.90
19516;DHT22;9901;47.448;7.692;2023-05-07T12:55:49;18.20;99.90
19516;DHT22;9901;47.448;7.692;2023-05-07T12:58:25;18.80;99.90
19516;DHT22;9901;47.448;7.692;2023-05-07T13:00:52;19.30;99.90
19516;DHT22;9901;47.448;7.692;2023-05-07T13:05:52;19.60;99.90
19516;DHT22;9901;47.448;7.692;2023-05-07T13:08:36;19.60;99.90
19516;DHT22;9901;47.448;7.692;2023-05-07T13:11:13;19.90;99.90
19516;DHT22;9901;47.448;7.692;2023-05-07T13:13:53;20.00;99.90
19516;DHT22;9901;47.448;7.692;2023-05-07T13:16:18;20.30;99.90
19516;DHT22;9901;47.448;7.692;2023-05-07T13:18:44;20.80;99.90
19516;DHT22;9901;47.448;7.692;2023-05-07T13:21:11;20.70;99.90
19516;DHT22;9901;47.448;7.692;2023-05-07T13:23:51;20.70;99.90
19516;DHT22;9901;47.448;7.692;2023-05-07T13:26:20;20.40;99.90
19516;DHT22;9901;47.448;7.692;2023-05-07T13:28:47;20.10;99.90
19516;DHT22;9901;47.448;7.692;2023-05-07T13:31:13;19.90;99.90
19516;DHT22;9901;47.448;7.692;2023-05-07T13:33:47;19.70;99.90
19516;DHT22;9901;47.448;7.692;2023-05-07T13:36:12;19.50;99.90
19516;DHT22;9901;47.448;7.692;2023-05-07T13:38:41;19.40;99.90
19516;DHT22;9901;47.448;7.692;2023-05-07T13:41:10;19.50;99.90
19516;DHT22;9901;47.448;7.692;2023-05-07T13:43:35;19.40;99.90
19516;DHT22;9901;47.448;7.692;2023-05-07T13:46:01;19.80;99.90
19516;DHT22;9901;47.448;7.692;2023-05-07T13:48:26;20.00;99.90
19516;DHT22;9901;47.448;7.692;2023-05-07T13:50:54;20.70;99.90
19516;DHT22;9901;47.448;7.692;2023-05-07T13:53:19;21.60;99.90
19516;DHT22;9901;47.448;7.692;2023-05-07T13:55:45;22.50;99.90
19516;DHT22;9901;47.448;7.692;2023-05-07T13:58:12;23.10;99.90
19516;DHT22;9901;47.448;7.692;2023-05-07T14:00:39;23.10;99.90
19516;DHT22;9901;47.448;7.692;2023-05-07T14:03:05;23.30;99.90
19516;DHT22;9901;47.448;7.692;2023-05-07T14:05:31;23.60;99.90
19516;DHT22;9901;47.448;7.692;2023-05-07T14:07:57;23.20;99.90
19516;DHT22;9901;47.448;7.692;2023-05-07T14:10:23;23.00;99.90
19516;DHT22;9901;47.448;7.692;2023-05-07T14:12:49;22.70;99.90
19516;DHT22;9901;47.448;7.692;2023-05-07T14:15:18;22.60;99.90
19516;DHT22;9901;47.448;7.692;2023-05-07T14:17:44;22.50;99.90
19516;DHT22;9901;47.448;7.692;2023-05-07T14:20:10;22.10;99.90
19516;DHT22;9901;47.448;7.692;2023-05-07T14:22:38;22.00;99.90
19516;DHT22;9901;47.448;7.692;2023-05-07T14:25:05;22.10;99.90
19516;DHT22;9901;47.448;7.692;2023-05-07T14:27:30;21.80;99.90
19516;DHT22;9901;47.448;7.692;2023-05-07T14:29:56;21.70;99.90
19516;DHT22;9901;47.448;7.692;2023-05-07T14:32:22;21.50;99.90
19516;DHT22;9901;47.448;7.692;2023-05-07T14:34:51;21.20;99.90
19516;DHT22;9901;47.448;7.692;2023-05-07T14:37:22;20.90;99.90
19516;DHT22;9901;47.448;7.692;2023-05-07T14:39:47;20.60;99.90
19516;DHT22;9901;47.448;7.692;2023-05-07T14:42:13;20.40;99.90
19516;DHT22;9901;47.448;7.692;2023-05-07T14:44:39;20.20;99.90
19516;DHT22;9901;47.448;7.692;2023-05-07T14:47:16;20.10;99.90
19516;DHT22;9901;47.448;7.692;2023-05-07T14:49:42;19.90;99.90
19516;DHT22;9901;47.448;7.692;2023-05-07T14:52:08;19.70;99.90
19516;DHT22;9901;47.448;7.692;2023-05-07T14:54:36;19.60;99.90
19516;DHT22;9901;47.448;7.692;2023-05-07T14:57:14;19.30;99.90
19516;DHT22;9901;47.448;7.692;2023-05-07T14:59:41;19.40;99.90
19516;DHT22;9901;47.448;7.692;2023-05-07T15:02:15;19.30;99.90
19516;DHT22;9901;47.448;7.692;2023-05-07T15:04:43;19.30;99.90
19516;DHT22;9901;47.448;7.692;2023-05-07T15:07:15;19.20;99.90
19516;DHT22;9901;47.448;7.692;2023-05-07T15:09:42;19.10;99.90
19516;DHT22;9901;47.448;7.692;2023-05-07T15:12:08;19.10;99.90
19516;DHT22;9901;47.448;7.692;2023-05-07T15:14:47;19.00;99.90
19516;DHT22;9901;47.448;7.692;2023-05-07T15:17:13;19.00;99.90
19516;DHT22;9901;47.448;7.692;2023-05-07T15:19:53;18.90;99.90
19516;DHT22;9901;47.448;7.692;2023-05-07T15:22:23;18.90;99.90
19516;DHT22;9901;47.448;7.692;2023-05-07T15:24:51;18.80;99.90
19516;DHT22;9901;47.448;7.692;2023-05-07T15:27:25;18.70;99.90
19516;DHT22;9901;47.448;7.692;2023-05-07T15:29:51;18.60;99.90
19516;DHT22;9901;47.448;7.692;2023-05-07T15:32:17;18.60;99.90
19516;DHT22;9901;47.448;7.692;2023-05-07T15:34:45;18.40;99.90
19516;DHT22;9901;47.448;7.692;2023-05-07T15:37:10;18.40;99.90
19516;DHT22;9901;47.448;7.692;2023-05-07T15:39:42;18.20;99.90
19516;DHT22;9901;47.448;7.692;2023-05-07T15:42:07;18.20;99.90
19516;DHT22;9901;47.448;7.692;2023-05-07T15:44:36;18.10;99.90
19516;DHT22;9901;47.448;7.692;2023-05-07T15:47:05;18.10;99.90
19516;DHT22;9901;47.448;7.692;2023-05-07T15:49:34;18.00;99.90
19516;DHT22;9901;47.448;7.692;2023-05-07T15:51:59;18.00;99.90
19516;DHT22;9901;47.448;7.692;2023-05-07T15:54:25;18.00;99.90
19516;DHT22;9901;47.448;7.692;2023-05-07T15:56:53;18.00;99.90
19516;DHT22;9901;47.448;7.692;2023-05-07T15:59:20;17.90;99.90
19516;DHT22;9901;47.448;7.692;2023-05-07T16:01:48;17.80;99.90
19516;DHT22;9901;47.448;7.692;2023-05-07T16:04:14;17.60;99.90
19516;DHT22;9901;47.448;7.692;2023-05-07T16:06:42;17.60;99.90
19516;DHT22;9901;47.448;7.692;2023-05-07T16:09:16;17.40;99.90
19516;DHT22;9901;47.448;7.692;2023-05-07T16:14:49;17.00;99.90
19516;DHT22;9901;47.448;7.692;2023-05-07T16:17:17;16.90;99.90